Time;durP1;ratioP1;P1;durP2;ratioP2;P2;SDS_P1;SDS_P2;PMS_P1;PMS_P2;Temp;Humidity;BMP_temperature;BMP_pressure;BME280_temperature;BME280_humidity;BME280_pressure;Samples;Min_cycle;Max_cycle;Signal;HPM_P1;HPM_P2
2022/04/08 00:02:02;;;;;;;35.58;20.85;;;;;;;5.98;79.57;92645.89;1703386;83;21163;-47
2022/04/08 00:04:32;;;;;;;31.10;20.57;;;;;;;6.01;79.80;92644.21;1701259;83;21128;-47
2022/04/08 00:07:00;;;;;;;25.85;19.25;;;;;;;6.03;79.86;92643.13;1706212;83;21011;-46
2022/04/08 00:09:28;;;;;;;30.23;17.87;;;;;;;6.07;79.94;92653.24;1689594;83;21000;-48
2022/04/08 00:11:57;;;;;;;34.98;18.37;;;;;;;6.09;79.62;92657.02;1703534;83;20977;-48
2022/04/08 00:14:25;;;;;;;49.15;23.62;;;;;;;6.10;79.37;92652.30;1706666;83;21029;-47
2022/04/08 00:16:52;;;;;;;56.55;29.18;;;;;;;6.02;79.57;92650.58;1691351;83;21157;-47
2022/04/08 00:19:20;;;;;;;58.28;28.23;;;;;;;5.99;79.90;92650.75;1681701;83;20985;-47
2022/04/08 00:21:50;;;;;;;38.28;23.32;;;;;;;5.99;79.99;92661.04;1686602;83;21059;-48
2022/04/08 00:24:17;;;;;;;37.08;21.45;;;;;;;5.97;80.40;92640.91;1686900;83;21592;-48
2022/04/08 00:26:47;;;;;;;30.95;17.02;;;;;;;5.98;80.39;92639.69;1699159;84;21005;-47
2022/04/08 00:29:14;;;;;;;31.62;17.27;;;;;;;5.98;80.43;92635.59;1678132;83;21144;-47
2022/04/08 00:31:42;;;;;;;29.75;19.07;;;;;;;5.98;80.48;92644.52;1686728;83;21071;-47
2022/04/08 00:34:09;;;;;;;27.22;17.10;;;;;;;5.97;80.63;92640.29;1684509;83;21072;-47
2022/04/08 00:36:37;;;;;;;30.85;17.37;;;;;;;6.00;80.94;92647.53;1690278;83;21072;-47
2022/04/08 00:39:05;;;;;;;38.05;20.52;;;;;;;6.03;81.05;92636.30;1688579;83;21029;-47
2022/04/08 00:41:32;;;;;;;48.28;24.52;;;;;;;6.04;81.03;92641.30;1700080;83;21179;-48
2022/04/08 00:44:00;;;;;;;40.83;21.33;;;;;;;6.05;81.01;92653.72;1697638;83;20972;-47
2022/04/08 00:46:28;;;;;;;36.55;18.27;;;;;;;6.06;80.78;92653.87;1671967;83;21504;-47
2022/04/08 00:48:56;;;;;;;38.05;19.48;;;;;;;6.04;80.85;92651.45;1696479;83;20984;-47
2022/04/08 00:51:23;;;;;;;28.90;17.77;;;;;;;5.98;80.96;92657.43;1678487;83;21063;-46
2022/04/08 00:53:50;;;;;;;52.95;28.73;;;;;;;5.96;81.15;92662.60;1702667;83;21392;-47
2022/04/08 00:56:21;;;;;;;49.48;24.12;;;;;;;5.96;81.23;92655.78;1685501;83;21013;-48
2022/04/08 00:58:50;;;;;;;119.67;66.87;;;;;;;5.97;81.35;92657.29;1690030;83;21021;-47
2022/04/08 01:01:18;;;;;;;33.28;20.90;;;;;;;6.03;81.32;92655.41;1700038;83;21047;-48
2022/04/08 01:03:47;;;;;;;35.13;22.52;;;;;;;6.09;81.09;92655.66;1673411;83;21551;-47
2022/04/08 01:09:02;;;;;;;40.08;26.80;;;;;;;6.13;80.62;92653.48;1712807;83;37348;-47
2022/04/08 01:11:31;;;;;;;34.55;22.10;;;;;;;6.16;80.48;92662.72;1690815;83;21031;-47
2022/04/08 01:14:08;;;;;;;21.85;14.73;;;;;;;6.17;80.25;92658.77;1690323;83;21016;-47
2022/04/08 01:16:36;;;;;;;20.45;12.53;;;;;;;6.20;80.59;92666.02;1699674;83;21028;-47
2022/04/08 01:19:04;;;;;;;14.23;10.90;;;;;;;6.31;80.61;92657.41;1684338;83;21108;-48
2022/04/08 01:21:32;;;;;;;12.10;10.80;;;;;;;6.45;80.62;92653.93;1694559;83;21722;-48
2022/04/08 01:24:01;;;;;;;13.78;10.75;;;;;;;6.62;80.24;92659.66;1703046;83;21104;-47
2022/04/08 01:26:30;;;;;;;14.98;11.43;;;;;;;6.80;79.71;92664.92;1679437;83;21246;-48
2022/04/08 01:28:58;;;;;;;12.15;10.28;;;;;;;6.93;79.09;92666.74;1702971;83;20976;-47
2022/04/08 01:31:29;;;;;;;13.88;9.55;;;;;;;7.00;78.53;92675.91;1696826;83;21279;-48
2022/04/08 01:33:56;;;;;;;11.15;8.53;;;;;;;7.08;78.01;92681.28;1687708;83;21194;-47
2022/04/08 01:36:23;;;;;;;12.25;10.58;;;;;;;7.14;77.57;92686.84;1699222;83;21645;-49
2022/04/08 01:38:50;;;;;;;13.22;10.45;;;;;;;7.16;77.26;92697.42;1706614;83;21512;-48
2022/04/08 01:41:18;;;;;;;14.68;9.73;;;;;;;7.17;77.00;92692.72;1702281;83;21072;-47
2022/04/08 01:43:47;;;;;;;19.92;11.33;;;;;;;7.16;76.73;92696.05;1705284;83;21280;-48
2022/04/08 01:46:15;;;;;;;11.95;10.63;;;;;;;7.13;76.54;92694.27;1675629;83;21091;-48
2022/04/08 01:48:42;;;;;;;13.62;9.85;;;;;;;7.11;76.30;92700.83;1689566;83;21183;-48
2022/04/08 01:51:10;;;;;;;11.65;8.75;;;;;;;7.08;76.11;92699.05;1701626;83;21102;-48
2022/04/08 01:53:38;;;;;;;12.23;9.65;;;;;;;7.08;76.04;92687.98;1684873;83;21571;-47
2022/04/08 01:56:05;;;;;;;12.07;9.35;;;;;;;7.08;76.02;92686.61;1681561;83;21321;-48
2022/04/08 01:58:35;;;;;;;15.32;11.33;;;;;;;7.07;75.83;92685.84;1683182;83;20973;-47
2022/04/08 02:01:03;;;;;;;25.02;15.05;;;;;;;7.03;75.76;92692.75;1691304;83;21036;-48
2022/04/08 02:03:31;;;;;;;29.67;17.67;;;;;;;7.02;75.60;92695.32;1696245;83;20996;-47
2022/04/08 02:05:59;;;;;;;41.90;24.27;;;;;;;6.97;75.33;92686.43;1699064;83;21031;-48
2022/04/08 02:08:27;;;;;;;41.25;22.87;;;;;;;6.92;75.32;92687.84;1694755;83;21283;-47
2022/04/08 02:10:55;;;;;;;30.12;18.60;;;;;;;6.85;75.40;92681.41;1672507;83;21500;-47
2022/04/08 02:13:23;;;;;;;35.98;22.02;;;;;;;6.82;75.42;92684.32;1712638;83;21099;-47
2022/04/08 02:15:50;;;;;;;26.07;17.32;;;;;;;6.79;75.61;92679.20;1696267;83;21468;-47
2022/04/08 02:18:17;;;;;;;25.43;16.23;;;;;;;6.76;75.41;92678.02;1703696;83;21095;-48
2022/04/08 02:20:44;;;;;;;22.77;15.70;;;;;;;6.71;75.53;92675.34;1689070;83;21151;-47
2022/04/08 02:23:12;;;;;;;21.07;14.03;;;;;;;6.70;75.59;92682.66;1685087;83;21489;-47
2022/04/08 02:25:39;;;;;;;15.65;11.05;;;;;;;6.70;75.79;92677.19;1702783;83;21076;-47
2022/04/08 02:28:07;;;;;;;15.88;11.28;;;;;;;6.70;75.84;92677.19;1697592;83;20962;-47
2022/04/08 02:30:34;;;;;;;17.80;12.28;;;;;;;6.65;75.97;92669.64;1672545;84;21462;-48
2022/04/08 02:33:04;;;;;;;25.20;15.53;;;;;;;6.66;76.26;92673.91;1672892;83;21757;-47
2022/04/08 02:35:31;;;;;;;41.60;25.43;;;;;;;6.66;76.32;92663.71;1684644;83;21564;-48
2022/04/08 02:37:59;;;;;;;44.13;26.35;;;;;;;6.67;76.34;92667.21;1701730;83;21558;-48
2022/04/08 02:40:27;;;;;;;31.27;21.87;;;;;;;6.64;76.36;92667.53;1692622;83;20968;-52
2022/04/08 02:42:56;;;;;;;29.67;20.55;;;;;;;6.62;76.55;92662.39;1681805;83;21021;-48
2022/04/08 02:45:24;;;;;;;35.05;21.82;;;;;;;6.60;76.57;92661.52;1702545;83;22780;-55
2022/04/08 02:47:51;;;;;;;32.20;21.90;;;;;;;6.60;76.50;92662.11;1692376;83;20992;-48
2022/04/08 02:50:20;;;;;;;23.73;14.70;;;;;;;6.58;76.47;92664.56;1683553;83;21464;-47
2022/04/08 02:52:48;;;;;;;31.48;19.05;;;;;;;6.55;76.38;92660.05;1698822;83;20993;-48
2022/04/08 02:55:15;;;;;;;28.32;18.65;;;;;;;6.48;76.62;92662.55;1687364;83;21028;-47
2022/04/08 02:57:47;;;;;;;29.55;17.60;;;;;;;6.48;76.95;92652.25;1684083;83;21788;-46
2022/04/08 03:00:16;;;;;;;32.08;19.82;;;;;;;6.53;77.03;92646.12;1680351;84;21135;-47
2022/04/08 03:02:45;;;;;;;31.23;21.70;;;;;;;6.50;76.83;92643.70;1677805;83;21705;-48
2022/04/08 03:05:12;;;;;;;23.80;16.60;;;;;;;6.48;76.83;92653.61;1695911;83;21103;-46
2022/04/08 03:07:40;;;;;;;23.42;14.50;;;;;;;6.47;76.94;92648.75;1684515;83;21009;-48
2022/04/08 03:10:10;;;;;;;21.68;13.15;;;;;;;6.49;77.17;92642.20;1705583;83;21145;-48
2022/04/08 03:12:39;;;;;;;15.35;11.53;;;;;;;6.57;77.18;92648.03;1691589;83;21107;-47
2022/04/08 03:15:07;;;;;;;21.65;17.12;;;;;;;6.65;77.45;92647.78;1698611;83;21501;-47
2022/04/08 03:17:36;;;;;;;14.00;10.30;;;;;;;6.81;77.52;92651.39;1710115;83;21033;-47
2022/04/08 03:20:05;;;;;;;11.83;7.90;;;;;;;7.04;77.15;92651.27;1682932;83;21052;-48
2022/04/08 03:22:32;;;;;;;9.70;8.70;;;;;;;7.27;76.38;92655.20;1680593;83;21145;-48
2022/04/08 03:25:01;;;;;;;9.30;8.23;;;;;;;7.46;75.75;92661.94;1677623;83;21064;-46
2022/04/08 03:27:28;;;;;;;10.82;8.88;;;;;;;7.64;74.94;92663.64;1692440;83;21138;-49
2022/04/08 03:29:55;;;;;;;94.70;54.77;;;;;;;7.84;74.32;92656.19;1690110;83;21622;-47
2022/04/08 03:32:23;;;;;;;19.57;13.65;;;;;;;8.06;73.61;92648.86;1695310;83;21568;-48
2022/04/08 03:34:57;;;;;;;21.65;16.75;;;;;;;8.25;72.83;92652.19;1686328;83;21155;-49
2022/04/08 03:37:19;;;;;;;15.45;13.35;;;;;;;8.42;71.83;92650.38;1700301;83;21113;-47
2022/04/08 03:39:47;;;;;;;17.87;13.68;;;;;;;8.62;71.15;92653.69;1688921;83;21072;-47
2022/04/08 03:42:14;;;;;;;10.45;9.35;;;;;;;8.77;70.34;92655.05;1689752;83;21000;-48
2022/04/08 03:44:43;;;;;;;14.33;11.20;;;;;;;8.91;69.75;92645.95;1682087;83;21088;-48
2022/04/08 03:47:11;;;;;;;20.32;16.67;;;;;;;9.05;69.03;92643.70;1680146;84;21111;-48
2022/04/08 03:49:38;;;;;;;42.43;31.97;;;;;;;9.17;68.66;92648.00;1685918;83;21077;-48
2022/04/08 03:52:08;;;;;;;114.42;76.15;;;;;;;9.26;68.60;92657.44;1701619;83;21119;-48
2022/04/08 03:54:36;;;;;;;34.63;20.23;;;;;;;9.28;68.23;92652.94;1712576;83;21047;-49
2022/04/08 03:57:04;;;;;;;25.10;16.15;;;;;;;9.32;67.96;92649.98;1689938;83;21533;-48
2022/04/08 03:59:32;;;;;;;17.65;12.13;;;;;;;9.35;67.70;92655.86;1684886;83;21200;-49
2022/04/08 04:02:01;;;;;;;15.48;11.33;;;;;;;9.42;67.46;92644.45;1671513;83;21433;-48
2022/04/08 04:04:29;;;;;;;14.38;11.28;;;;;;;9.52;67.31;92637.50;1690238;83;21024;-49
2022/04/08 04:06:56;;;;;;;12.43;10.20;;;;;;;9.63;66.58;92655.41;1677172;83;21761;-49
2022/04/08 04:09:26;;;;;;;12.82;9.75;;;;;;;9.76;66.35;92657.84;1695779;83;21027;-49
2022/04/08 04:11:54;;;;;;;13.60;9.35;;;;;;;9.89;65.62;92660.91;1698459;83;21282;-48
2022/04/08 04:14:23;;;;;;;11.05;8.95;;;;;;;10.01;65.20;92658.34;1689197;83;21519;-48
2022/04/08 04:16:51;;;;;;;9.58;8.68;;;;;;;10.10;64.89;92658.76;1689382;83;21011;-48
2022/04/08 04:19:20;;;;;;;11.25;8.58;;;;;;;10.17;64.57;92656.92;1707096;83;20973;-48
2022/04/08 04:21:49;;;;;;;28.02;21.10;;;;;;;10.19;64.53;92638.69;1695955;83;20964;-47
2022/04/08 04:24:17;;;;;;;12.00;9.68;;;;;;;10.18;64.53;92633.70;1693512;83;21169;-47
2022/04/08 04:26:45;;;;;;;9.93;7.90;;;;;;;10.17;64.40;92630.19;1702866;83;21649;-48
2022/04/08 04:29:13;;;;;;;16.80;12.40;;;;;;;10.17;64.28;92630.19;1699065;83;21059;-49
2022/04/08 04:31:42;;;;;;;15.58;9.45;;;;;;;10.19;64.29;92624.20;1698690;83;21635;-50
2022/04/08 04:34:10;;;;;;;17.17;9.80;;;;;;;10.23;64.10;92620.59;1691495;83;21234;-50
2022/04/08 04:36:37;;;;;;;12.37;9.38;;;;;;;10.25;64.20;92634.58;1691728;83;21107;-50
2022/04/08 04:39:05;;;;;;;15.45;10.30;;;;;;;10.26;64.01;92630.59;1694437;83;21046;-48
2022/04/08 04:41:32;;;;;;;12.98;9.55;;;;;;;10.30;64.04;92636.59;1670018;83;21036;-50
2022/04/08 04:44:00;;;;;;;19.48;15.80;;;;;;;10.34;63.76;92631.63;1705379;83;20968;-52
2022/04/08 04:46:27;;;;;;;17.35;15.08;;;;;;;10.40;63.69;92643.38;1696568;83;21093;-49
2022/04/08 04:48:55;;;;;;;48.10;26.27;;;;;;;10.43;63.53;92656.12;1709482;83;21152;-49
2022/04/08 04:51:22;;;;;;;43.23;25.80;;;;;;;10.48;63.01;92652.63;1688759;83;21098;-49
2022/04/08 04:53:50;;;;;;;29.77;21.05;;;;;;;10.55;62.97;92657.66;1705781;83;21630;-53
2022/04/08 04:56:18;;;;;;;23.57;18.95;;;;;;;10.62;62.89;92666.17;1689250;83;20957;-54
2022/04/08 04:58:46;;;;;;;14.43;12.93;;;;;;;10.69;62.78;92665.67;1705360;83;21600;-49
2022/04/08 05:01:14;;;;;;;16.27;14.53;;;;;;;10.75;62.53;92658.93;1680792;83;21276;-51
2022/04/08 05:03:41;;;;;;;17.25;14.13;;;;;;;10.84;62.54;92655.92;1690737;83;20985;-48
2022/04/08 05:06:08;;;;;;;22.25;17.40;;;;;;;10.91;62.50;92671.95;1713045;83;20979;-49
2022/04/08 05:08:37;;;;;;;25.95;17.62;;;;;;;10.99;62.40;92674.96;1692823;83;21072;-49
2022/04/08 05:11:04;;;;;;;21.93;12.43;;;;;;;11.06;62.26;92671.70;1691215;83;21047;-49
2022/04/08 05:13:32;;;;;;;21.77;15.45;;;;;;;11.12;62.13;92675.96;1695068;83;21083;-48
2022/04/08 05:16:01;;;;;;;22.52;15.90;;;;;;;11.15;61.98;92681.83;1702263;83;21137;-48
2022/04/08 05:18:29;;;;;;;16.15;11.85;;;;;;;11.18;61.79;92694.59;1703887;83;20989;-49
2022/04/08 05:20:58;;;;;;;13.32;10.68;;;;;;;11.20;61.71;92701.72;1699610;83;21078;-48
2022/04/08 05:23:29;;;;;;;15.23;9.43;;;;;;;11.20;61.59;92696.21;1684850;83;20943;-48
2022/04/08 05:25:58;;;;;;;13.18;10.15;;;;;;;11.17;61.65;92693.09;1701855;83;21809;-48
2022/04/08 05:28:26;;;;;;;18.65;11.83;;;;;;;11.15;61.70;92696.97;1713357;83;21067;-49
2022/04/08 05:30:53;;;;;;;16.67;11.68;;;;;;;11.11;61.86;92701.98;1678334;84;21639;-49
2022/04/08 05:33:20;;;;;;;27.45;12.55;;;;;;;11.10;62.07;92697.73;1688420;83;21457;-48
2022/04/08 05:35:48;;;;;;;26.20;12.55;;;;;;;11.07;62.17;92689.09;1697830;83;20985;-48
2022/04/08 05:38:16;;;;;;;27.77;11.57;;;;;;;11.05;62.29;92699.86;1686653;83;21167;-49
2022/04/08 05:40:43;;;;;;;29.57;13.75;;;;;;;11.03;62.44;92705.11;1675148;83;21562;-48
2022/04/08 05:43:11;;;;;;;32.60;14.55;;;;;;;11.03;62.51;92721.62;1694569;82;21462;-49
2022/04/08 05:45:38;;;;;;;26.27;16.05;;;;;;;11.01;62.55;92703.45;1701595;83;21147;-51
2022/04/08 05:48:07;;;;;;;20.17;11.80;;;;;;;10.99;62.89;92699.08;1688670;83;21489;-50
2022/04/08 05:50:34;;;;;;;17.27;11.28;;;;;;;11.05;62.90;92692.22;1690188;83;21752;-51
2022/04/08 05:53:03;;;;;;;16.37;11.28;;;;;;;11.13;62.87;92696.72;1663630;84;21525;-51
2022/04/08 05:55:30;;;;;;;17.45;9.40;;;;;;;11.22;62.40;92693.73;1692592;83;21709;-51
2022/04/08 05:57:57;;;;;;;14.70;10.40;;;;;;;11.32;62.19;92695.61;1697101;82;21569;-55
2022/04/08 06:00:24;;;;;;;45.55;36.13;;;;;;;11.40;62.07;92705.63;1679519;82;21069;-51
2022/04/08 06:02:55;;;;;;;17.15;11.45;;;;;;;11.45;61.57;92713.73;1678495;83;21204;-52
2022/04/08 06:05:22;;;;;;;11.12;9.20;;;;;;;11.49;61.36;92731.51;1700606;82;21023;-49
2022/04/08 06:07:51;;;;;;;14.45;8.63;;;;;;;11.54;61.24;92739.65;1681682;83;21014;-51
2022/04/08 06:10:22;;;;;;;17.10;9.98;;;;;;;11.58;61.26;92754.70;1689388;83;21915;-53
2022/04/08 06:12:51;;;;;;;16.35;10.28;;;;;;;11.61;61.24;92764.72;1687355;82;21017;-52
2022/04/08 06:15:19;;;;;;;13.45;10.05;;;;;;;11.64;61.14;92763.70;1674040;82;21201;-50
2022/04/08 06:17:47;;;;;;;15.72;10.30;;;;;;;11.69;61.17;92758.08;1689096;82;21121;-51
2022/04/08 06:20:16;;;;;;;15.00;10.28;;;;;;;11.73;61.11;92770.32;1683365;82;21028;-51
2022/04/08 06:22:44;;;;;;;19.00;13.60;;;;;;;11.78;60.97;92779.84;1689320;82;21055;-48
2022/04/08 06:25:13;;;;;;;13.78;10.35;;;;;;;11.82;60.86;92777.58;1699379;82;21110;-50
2022/04/08 06:27:41;;;;;;;14.10;8.90;;;;;;;11.86;60.68;92777.45;1687039;82;21141;-51
2022/04/08 06:30:10;;;;;;;15.18;9.43;;;;;;;11.91;60.50;92756.03;1693424;82;20920;-53
2022/04/08 06:32:39;;;;;;;21.65;13.40;;;;;;;11.96;60.46;92755.30;1684236;82;21106;-52
2022/04/08 06:35:07;;;;;;;16.17;9.63;;;;;;;12.08;60.67;92747.75;1691502;82;21531;-51
2022/04/08 06:37:34;;;;;;;24.77;8.95;;;;;;;12.18;60.04;92713.13;1693937;82;21406;-53
2022/04/08 06:40:05;;;;;;;21.40;14.25;;;;;;;12.29;60.02;92657.33;1694472;82;21107;-51
2022/04/08 06:42:32;;;;;;;51.83;29.67;;;;;;;12.43;59.81;92697.63;1696558;83;21064;-52
2022/04/08 06:45:00;;;;;;;35.08;21.93;;;;;;;12.58;59.91;92698.06;1679756;82;21049;-50
2022/04/08 06:47:32;;;;;;;26.33;21.15;;;;;;;12.73;58.92;92720.56;1674787;82;21055;-51
2022/04/08 06:50:01;;;;;;;18.05;13.75;;;;;;;12.78;58.03;92727.44;1684553;82;21115;-51
2022/04/08 06:52:28;;;;;;;24.72;16.23;;;;;;;12.79;57.62;92737.83;1671393;83;21137;-50
2022/04/08 06:54:58;;;;;;;17.05;11.00;;;;;;;12.78;57.72;92752.27;1675926;83;21046;-52
2022/04/08 06:57:27;;;;;;;31.60;11.05;;;;;;;12.74;57.33;92762.80;1679969;82;21020;-54
2022/04/08 06:59:55;;;;;;;21.65;9.20;;;;;;;12.63;57.64;92777.27;1700328;82;21352;-50
2022/04/08 07:02:25;;;;;;;13.85;9.20;;;;;;;12.52;58.15;92763.53;1685151;83;21094;-50
2022/04/08 07:04:53;;;;;;;11.15;8.68;;;;;;;12.44;58.56;92810.06;1689415;82;21184;-51
2022/04/08 07:07:20;;;;;;;14.53;9.53;;;;;;;12.35;58.81;92813.84;1684690;82;20992;-51
2022/04/08 07:09:49;;;;;;;16.37;8.68;;;;;;;12.32;59.21;92828.64;1683620;82;21349;-50
2022/04/08 07:12:16;;;;;;;19.10;12.15;;;;;;;12.35;59.11;92826.87;1689645;82;21064;-52
2022/04/08 07:14:44;;;;;;;20.10;13.70;;;;;;;12.45;59.01;92817.08;1686486;83;21584;-55
2022/04/08 07:17:12;;;;;;;18.82;9.85;;;;;;;12.56;58.85;92821.94;1698227;82;21472;-52
2022/04/08 07:19:39;;;;;;;12.55;8.10;;;;;;;12.69;58.64;92825.66;1690089;82;21131;-53
2022/04/08 07:22:07;;;;;;;14.70;7.53;;;;;;;12.88;58.11;92814.81;1692291;82;21052;-54
2022/04/08 07:24:35;;;;;;;12.50;7.42;;;;;;;13.04;56.90;92815.41;1691713;82;21004;-54
2022/04/08 07:27:03;;;;;;;10.45;6.60;;;;;;;13.21;56.09;92810.52;1679433;83;21094;-52
2022/04/08 07:29:32;;;;;;;10.72;6.25;;;;;;;13.38;55.01;92808.42;1703677;83;21163;-51
2022/04/08 07:32:00;;;;;;;11.15;8.63;;;;;;;13.60;54.34;92807.66;1695991;83;21039;-51
2022/04/08 07:34:27;;;;;;;15.93;8.93;;;;;;;13.77;53.87;92831.02;1683359;82;21048;-50
2022/04/08 07:36:57;;;;;;;31.87;11.10;;;;;;;13.87;53.80;92835.73;1693551;82;21073;-52
2022/04/08 07:39:25;;;;;;;14.33;6.75;;;;;;;14.00;53.46;92846.19;1665915;83;21090;-52
2022/04/08 07:41:52;;;;;;;9.65;6.25;;;;;;;14.07;52.31;92868.50;1691425;83;21202;-52
2022/04/08 07:44:19;;;;;;;9.03;5.00;;;;;;;14.16;52.46;92867.45;1678393;83;20981;-50
2022/04/08 07:46:46;;;;;;;13.35;5.08;;;;;;;14.27;51.97;92882.56;1688632;82;21022;-53
2022/04/08 07:49:15;;;;;;;15.03;8.48;;;;;;;14.24;50.38;92918.17;1688987;83;20953;-55
2022/04/08 07:51:42;;;;;;;7.20;5.35;;;;;;;14.15;51.78;92915.70;1694231;83;21508;-55
2022/04/08 07:54:09;;;;;;;14.03;12.60;;;;;;;13.78;53.76;92917.56;1696072;82;21178;-51
2022/04/08 07:56:36;;;;;;;6.53;5.92;;;;;;;13.37;55.87;92900.82;1689949;83;21083;-53
2022/04/08 07:59:04;;;;;;;24.07;19.25;;;;;;;13.14;56.51;92913.22;1693129;83;21107;-51
2022/04/08 08:01:31;;;;;;;7.33;6.05;;;;;;;13.03;56.90;92929.80;1682120;82;21203;-53
2022/04/08 08:04:00;;;;;;;5.03;4.35;;;;;;;13.12;57.94;92910.22;1693202;82;21060;-51
2022/04/08 08:06:27;;;;;;;5.05;4.20;;;;;;;13.25;56.43;92918.06;1686079;82;21205;-51
2022/04/08 08:08:58;;;;;;;4.62;3.40;;;;;;;13.37;55.62;92917.39;1708230;82;21011;-51
2022/04/08 08:11:26;;;;;;;20.35;12.93;;;;;;;13.39;53.10;92912.11;1686983;83;21237;-53
2022/04/08 08:13:55;;;;;;;6.33;4.62;;;;;;;13.37;53.03;92923.68;1698980;82;21034;-51
2022/04/08 08:16:24;;;;;;;14.40;4.58;;;;;;;13.44;54.16;92934.83;1698862;82;21122;-55
2022/04/08 08:18:56;;;;;;;5.83;3.55;;;;;;;13.59;51.89;92928.36;1688734;82;21081;-53
2022/04/08 08:21:24;;;;;;;3.20;2.90;;;;;;;13.73;49.32;92902.39;1696677;82;20984;-56
2022/04/08 08:23:53;;;;;;;5.72;3.90;;;;;;;13.73;47.30;92917.59;1690271;83;20976;-50
2022/04/08 08:26:22;;;;;;;5.55;3.33;;;;;;;13.52;47.66;92911.69;1691147;82;21046;-52
2022/04/08 08:28:50;;;;;;;5.42;3.00;;;;;;;13.31;47.97;92893.96;1689712;82;21058;-54
2022/04/08 08:31:18;;;;;;;4.67;3.35;;;;;;;13.20;48.00;92891.86;1697889;82;21265;-53
2022/04/08 08:33:45;;;;;;;5.60;3.52;;;;;;;13.22;48.44;92878.29;1684475;83;21119;-54
2022/04/08 08:36:14;;;;;;;4.58;2.80;;;;;;;13.38;47.40;92900.94;1707083;82;21083;-50
2022/04/08 08:38:43;;;;;;;4.62;3.12;;;;;;;13.51;45.53;92917.71;1704089;82;21070;-51
2022/04/08 08:41:10;;;;;;;23.80;4.08;;;;;;;13.58;45.57;92888.92;1704060;82;21500;-55
2022/04/08 08:43:37;;;;;;;7.40;3.10;;;;;;;13.62;44.82;92899.70;1702530;82;21119;-50
2022/04/08 08:46:06;;;;;;;8.48;2.77;;;;;;;13.65;44.22;92900.80;1680469;83;21045;-53
2022/04/08 08:48:35;;;;;;;9.10;3.02;;;;;;;13.66;43.98;92910.59;1674813;83;22173;-50
2022/04/08 08:51:03;;;;;;;4.55;2.37;;;;;;;13.62;44.13;92919.05;1692082;82;21190;-50
2022/04/08 08:53:32;;;;;;;8.48;2.27;;;;;;;13.59;43.95;92896.59;1685485;83;21084;-53
2022/04/08 08:56:01;;;;;;;27.13;2.70;;;;;;;13.58;43.22;92957.22;1686616;83;21148;-54
2022/04/08 08:58:29;;;;;;;3.83;2.25;;;;;;;13.59;43.67;92935.27;1684443;83;21067;-53
2022/04/08 09:00:57;;;;;;;8.28;2.58;;;;;;;13.66;42.82;92938.22;1667367;83;21123;-53
2022/04/08 09:03:29;;;;;;;7.80;3.20;;;;;;;13.67;43.05;92898.27;1690249;82;21056;-52
2022/04/08 09:05:55;;;;;;;5.17;2.83;;;;;;;13.74;43.02;92952.25;1690139;83;21057;-51
2022/04/08 09:08:25;;;;;;;15.88;3.08;;;;;;;13.82;42.76;92938.03;1702540;82;21152;-51
2022/04/08 09:10:54;;;;;;;17.77;4.08;;;;;;;13.87;42.25;92962.12;1646538;83;21012;-60
2022/04/08 09:13:22;;;;;;;4.62;2.35;;;;;;;13.94;42.34;92954.03;1709744;83;21363;-53
2022/04/08 09:15:56;;;;;;;4.87;2.80;;;;;;;;;;1677725;83;21068;-50
2022/04/08 09:18:27;;;;;;;6.05;2.40;;;;;;;13.89;42.95;92965.12;1685822;83;21541;-57
2022/04/08 09:20:55;;;;;;;7.83;3.33;;;;;;;13.87;42.84;92954.59;1679617;83;21224;-55
2022/04/08 09:23:24;;;;;;;5.35;2.55;;;;;;;13.96;43.28;92977.77;1679580;83;20993;-53
2022/04/08 09:26:04;;;;;;;4.20;2.58;;;;;;;14.09;42.93;92939.86;1681124;82;21014;-53
2022/04/08 09:31:19;;;;;;;5.78;2.72;;;;;;;14.49;42.09;92937.82;1756257;79;21084;-55
2022/04/08 09:33:52;;;;;;;18.45;2.92;;;;;;;14.62;40.88;92931.70;1761283;80;21112;-54
2022/04/08 09:36:32;;;;;;;6.92;1.80;;;;;;;14.61;39.83;92947.55;1766541;80;21023;-55
2022/04/08 09:39:00;;;;;;;11.68;2.50;;;;;;;14.51;40.13;92932.55;1765289;80;21030;-56
2022/04/08 09:41:52;;;;;;;16.32;2.65;;;;;;;14.43;40.12;92968.83;1766643;80;21006;-54
2022/04/08 09:44:27;;;;;;;14.05;2.60;;;;;;;14.43;40.38;92920.41;1762206;80;20988;-54
2022/04/08 09:46:54;;;;;;;17.07;2.65;;;;;;;14.46;39.79;92977.59;1761471;80;21184;-54
2022/04/08 09:49:22;;;;;;;31.77;2.95;;;;;;;14.43;39.21;92933.63;1765261;80;21056;-60
2022/04/08 09:51:50;;;;;;;8.85;2.17;;;;;;;14.49;39.02;92962.72;1765709;80;21015;-56
2022/04/08 09:54:21;;;;;;;19.75;3.27;;;;;;;14.56;38.47;92937.28;1762340;80;21049;-58
2022/04/08 09:56:49;;;;;;;18.60;2.62;;;;;;;14.63;39.15;92906.26;1767434;80;21528;-63
2022/04/08 09:59:21;;;;;;;5.37;1.70;;;;;;;14.76;37.64;92927.78;1729414;81;21089;-56
2022/04/08 10:01:49;;;;;;;4.35;2.30;;;;;;;14.92;38.08;92915.17;1742065;80;20991;-57
2022/04/08 10:04:19;;;;;;;6.95;2.08;;;;;;;15.05;37.04;92903.46;1761175;80;21535;-55
2022/04/08 10:06:49;;;;;;;6.60;2.70;;;;;;;15.14;36.53;92910.78;1762935;80;21067;-54
2022/04/08 10:09:19;;;;;;;15.68;4.30;;;;;;;15.29;36.01;92929.16;1763625;79;20996;-57
2022/04/08 10:12:01;;;;;;;11.38;2.55;;;;;;;15.48;34.91;92944.42;1768286;80;21448;-59
2022/04/08 10:15:27;;;;;;;11.70;1.87;;;;;;;15.67;34.64;92943.20;1769681;80;20912;-54
2022/04/08 10:17:58;;;;;;;19.32;2.52;;;;;;;16.00;34.10;92954.48;1765598;80;20996;-55
2022/04/08 10:20:27;;;;;;;12.15;2.33;;;;;;;16.31;32.63;92978.89;1764695;80;21103;-54
2022/04/08 10:23:14;;;;;;;22.65;3.77;;;;;;;16.49;32.57;92969.06;1764683;80;21051;-55
2022/04/08 10:25:47;;;;;;;41.55;4.37;;;;;;;16.62;32.78;92951.07;1722233;81;21054;-55
2022/04/08 10:28:14;;;;;;;8.45;1.50;;;;;;;16.81;32.18;92940.66;1688060;83;21070;-55
2022/04/08 10:30:48;;;;;;;16.87;2.62;;;;;;;16.88;31.79;92962.28;1677605;84;20977;-55
2022/04/08 10:33:28;;;;;;;4.53;1.60;;;;;;;16.87;32.22;92959.39;1673539;84;21057;-58
2022/04/08 10:36:07;;;;;;;22.42;2.72;;;;;;;17.13;31.98;92962.95;1676040;83;21023;-60
2022/04/08 10:38:37;;;;;;;3.35;1.67;;;;;;;17.47;31.07;92986.77;1670908;84;21258;-54
2022/04/08 10:41:10;;;;;;;10.25;1.60;;;;;;;17.83;31.50;92994.80;1667801;84;21133;-55
2022/04/08 10:43:46;;;;;;;18.67;3.50;;;;;;;18.15;30.17;93017.03;1672411;83;21045;-57
2022/04/08 10:46:29;;;;;;;6.83;2.02;;;;;;;18.31;30.52;92970.77;1668461;84;21018;-54
2022/04/08 10:48:58;;;;;;;9.53;2.05;;;;;;;18.43;29.91;92999.88;1668094;84;21035;-56
2022/04/08 10:51:30;;;;;;;7.30;1.90;;;;;;;18.40;30.09;92981.47;1680675;83;21230;-56
2022/04/08 10:54:04;;;;;;;5.03;2.02;;;;;;;18.30;30.26;92979.02;1676715;83;21003;-55
2022/04/08 10:56:34;;;;;;;5.90;2.00;;;;;;;18.30;30.86;92979.02;1674504;83;22093;-56
2022/04/08 10:59:04;;;;;;;6.60;1.55;;;;;;;18.33;31.06;92966.06;1690453;83;21066;-57
2022/04/08 11:01:35;;;;;;;4.65;1.45;;;;;;;18.43;31.41;92972.69;1685338;84;21057;-55
2022/04/08 11:04:05;;;;;;;6.15;1.50;;;;;;;18.52;31.04;93013.36;1635025;85;21304;-55
2022/04/08 11:06:34;;;;;;;6.42;2.60;;;;;;;18.72;31.07;92983.41;1659844;84;21029;-56
2022/04/08 11:09:11;;;;;;;3.10;1.75;;;;;;;18.92;31.44;92971.52;1717679;82;21007;-55
2022/04/08 11:11:42;;;;;;;10.25;2.20;;;;;;;19.23;30.50;92953.77;1715258;82;21097;-58
2022/04/08 11:14:12;;;;;;;8.98;2.00;;;;;;;19.46;29.30;92961.69;1714082;82;21069;-57
2022/04/08 11:16:41;;;;;;;10.60;1.50;;;;;;;19.44;29.12;92978.86;1723164;81;21834;-57
2022/04/08 11:19:10;;;;;;;23.18;12.60;;;;;;;19.45;29.85;92949.03;1714427;81;21062;-56
2022/04/08 11:21:39;;;;;;;7.37;2.35;;;;;;;19.72;29.79;92944.00;1715590;81;21101;-56
2022/04/08 11:24:09;;;;;;;3.08;1.07;;;;;;;19.98;28.15;92968.89;1715191;81;21045;-55
2022/04/08 11:26:49;;;;;;;10.38;1.98;;;;;;;20.01;27.49;92935.05;1715538;81;21002;-54
2022/04/08 11:29:24;;;;;;;5.20;1.77;;;;;;;19.99;27.86;92950.20;1718373;81;21150;-57
2022/04/08 11:31:55;;;;;;;22.35;3.33;;;;;;;20.17;27.57;92957.58;1716972;81;20954;-56
2022/04/08 11:34:26;;;;;;;29.23;3.60;;;;;;;20.30;27.50;92921.13;1680748;82;21332;-56
2022/04/08 11:36:57;;;;;;;12.45;2.50;;;;;;;20.23;27.11;92966.53;1697470;81;28285;-55
2022/04/08 11:39:26;;;;;;;7.67;1.40;;;;;;;19.98;27.35;92989.19;1710789;82;21062;-56
2022/04/08 11:41:57;;;;;;;9.63;2.08;;;;;;;19.92;27.32;92987.18;1716889;81;21815;-54